createdAt,value
2023-01-01T00:00:33.822Z,2.40
2023-01-01T00:01:33.788Z,2.70
2023-01-01T00:02:36.987Z,2.50
2023-01-01T00:03:33.746Z,2.20
2023-01-01T00:04:33.736Z,2.30
2023-01-01T00:05:33.718Z,2.30
2023-01-01T00:06:33.662Z,2.20
2023-01-01T00:07:33.672Z,1.80
2023-01-01T00:08:33.652Z,1.60
2023-01-01T00:09:33.654Z,1.90
2023-01-01T00:10:33.654Z,1.80
2023-01-01T00:11:33.635Z,2.00
2023-01-01T00:12:33.665Z,2.10
2023-01-01T00:13:33.601Z,2.10
2023-01-01T00:14:33.587Z,1.80
2023-01-01T00:15:33.581Z,1.80
2023-01-01T00:16:33.587Z,2.30
2023-01-01T00:17:33.562Z,2.10
2023-01-01T00:18:33.523Z,2.20
2023-01-01T00:19:33.519Z,2.30
2023-01-01T00:20:35.545Z,2.50
2023-01-01T00:21:33.515Z,2.60
2023-01-01T00:23:34.496Z,2.50
2023-01-01T00:24:33.461Z,2.30
2023-01-01T00:25:33.483Z,2.50
2023-01-01T00:26:35.469Z,3.70
2023-01-01T00:27:33.443Z,2.70
2023-01-01T00:28:33.413Z,2.70
2023-01-01T00:29:33.425Z,2.80
2023-01-01T00:30:33.433Z,2.60
2023-01-01T00:31:33.469Z,2.90
2023-01-01T00:32:33.421Z,2.60
2023-01-01T00:33:33.490Z,2.90
2023-01-01T00:34:33.346Z,3.00
2023-01-01T00:35:33.337Z,2.90
2023-01-01T00:36:33.375Z,2.60
2023-01-01T00:37:33.327Z,2.70
2023-01-01T00:38:33.326Z,2.70
2023-01-01T00:39:33.404Z,2.70
2023-01-01T00:40:33.336Z,2.70
2023-01-01T00:41:33.282Z,2.50
2023-01-01T00:42:33.305Z,2.50
2023-01-01T00:43:33.269Z,2.30
2023-01-01T00:44:33.250Z,2.50
2023-01-01T00:45:33.351Z,2.10
2023-01-01T00:46:33.249Z,2.20
2023-01-01T00:47:33.228Z,2.30
2023-01-01T00:48:33.362Z,2.50
2023-01-01T00:49:33.280Z,2.40
2023-01-01T00:50:33.210Z,2.50
2023-01-01T00:51:37.176Z,2.30
2023-01-01T00:52:33.166Z,2.40
2023-01-01T00:53:33.251Z,2.40
2023-01-01T00:54:33.183Z,2.40
2023-01-01T00:55:33.163Z,2.30
2023-01-01T00:56:33.108Z,2.30
2023-01-01T00:57:33.123Z,2.60
2023-01-01T00:58:33.098Z,2.60
2023-01-01T00:59:33.128Z,2.20
2023-01-01T01:00:33.084Z,2.40
2023-01-01T01:01:33.139Z,2.40
2023-01-01T01:02:33.237Z,2.90
2023-01-01T01:03:33.068Z,2.50
2023-01-01T01:04:33.045Z,2.40
2023-01-01T01:05:33.051Z,2.60
2023-01-01T01:06:33.019Z,2.20
2023-01-01T01:07:33.007Z,2.80
2023-01-01T01:08:32.988Z,2.30
2023-01-01T01:09:32.997Z,2.40
2023-01-01T01:10:33.047Z,2.50
2023-01-01T01:11:32.968Z,2.90
2023-01-01T01:12:32.989Z,2.30
2023-01-01T01:13:32.941Z,2.40
2023-01-01T01:14:32.929Z,2.50
2023-01-01T01:15:32.950Z,2.50
2023-01-01T01:16:33.103Z,2.30
2023-01-01T01:17:32.909Z,2.70
2023-01-01T01:18:32.886Z,2.70
2023-01-01T01:19:32.871Z,2.50
2023-01-01T01:20:32.894Z,2.30
2023-01-01T01:21:32.862Z,2.50
2023-01-01T01:22:32.848Z,2.30
2023-01-01T01:23:32.829Z,2.30
2023-01-01T01:24:32.850Z,2.30
2023-01-01T01:25:32.842Z,2.50
2023-01-01T01:26:32.836Z,2.50
2023-01-01T01:27:32.796Z,2.60
2023-01-01T01:28:32.774Z,2.90
2023-01-01T01:29:32.784Z,2.50
2023-01-01T01:30:32.833Z,2.30
2023-01-01T01:31:32.779Z,2.40
2023-01-01T01:32:32.745Z,2.40
2023-01-01T01:33:32.724Z,2.90
2023-01-01T01:34:32.711Z,2.70
2023-01-01T01:35:32.721Z,2.50
2023-01-01T01:36:32.734Z,2.60
2023-01-01T01:37:32.705Z,2.10
2023-01-01T01:38:32.659Z,2.20
2023-01-01T01:39:32.650Z,2.00
2023-01-01T01:40:32.676Z,2.50
2023-01-01T01:41:32.639Z,2.20
2023-01-01T01:42:32.628Z,2.00
2023-01-01T01:43:32.622Z,1.80
2023-01-01T01:44:32.612Z,1.70
2023-01-01T01:45:33.547Z,2.00
2023-01-01T01:46:32.681Z,1.50
2023-01-01T01:47:32.595Z,2.20
2023-01-01T01:48:32.605Z,2.30
2023-01-01T01:49:32.608Z,2.30
2023-01-01T01:50:32.845Z,1.90
2023-01-01T01:51:32.585Z,1.90
2023-01-01T01:52:32.583Z,1.60
2023-01-01T01:53:32.532Z,1.80
2023-01-01T01:54:32.531Z,2.30
2023-01-01T01:55:32.548Z,1.70
2023-01-01T01:56:32.536Z,1.80
2023-01-01T01:57:32.534Z,2.10
2023-01-01T01:58:32.448Z,1.80
2023-01-01T01:59:32.509Z,2.00
2023-01-01T02:00:32.479Z,1.80
2023-01-01T02:01:32.538Z,1.60
2023-01-01T02:02:32.652Z,1.80
2023-01-01T02:03:32.470Z,1.90
2023-01-01T02:04:32.389Z,2.10
2023-01-01T02:05:32.400Z,2.10
2023-01-01T02:06:32.373Z,1.90
2023-01-01T02:07:32.361Z,1.90
2023-01-01T02:08:32.340Z,1.90
2023-01-01T02:09:32.343Z,2.40
2023-01-01T02:10:32.435Z,1.70
2023-01-01T02:11:32.311Z,2.10
2023-01-01T02:12:32.311Z,2.10
2023-01-01T02:13:32.306Z,2.10
2023-01-01T02:14:32.284Z,2.20
2023-01-01T02:15:32.374Z,2.10
2023-01-01T02:16:32.248Z,2.10
2023-01-01T02:17:37.091Z,2.30
2023-01-01T02:18:33.247Z,2.00
2023-01-01T02:19:32.222Z,2.10
2023-01-01T02:20:32.258Z,1.90
2023-01-01T02:21:32.205Z,2.40
2023-01-01T02:22:32.190Z,2.20
2023-01-01T02:23:32.172Z,1.90
2023-01-01T02:24:32.171Z,2.60
2023-01-01T02:25:32.240Z,2.10
2023-01-01T02:26:32.191Z,2.00
2023-01-01T02:27:32.129Z,1.90
2023-01-01T02:28:32.143Z,2.30
2023-01-01T02:29:32.140Z,2.30
2023-01-01T02:30:32.135Z,1.90
2023-01-01T02:31:32.135Z,1.90
2023-01-01T02:32:32.071Z,2.00
2023-01-01T02:33:32.073Z,1.80
2023-01-01T02:34:32.210Z,2.30
2023-01-01T02:35:32.072Z,1.90
2023-01-01T02:36:32.061Z,2.00
2023-01-01T02:37:32.046Z,1.90
2023-01-01T02:38:32.047Z,2.00
2023-01-01T02:39:32.073Z,2.10
2023-01-01T02:40:32.042Z,2.20
2023-01-01T02:41:31.995Z,1.90
2023-01-01T02:42:32.026Z,2.00
2023-01-01T02:43:31.976Z,2.10
2023-01-01T02:44:31.959Z,2.10
2023-01-01T02:45:31.990Z,1.80
2023-01-01T02:46:31.936Z,1.80
2023-01-01T02:47:32.197Z,1.80
2023-01-01T02:48:32.028Z,1.90
2023-01-01T02:49:31.916Z,1.60
2023-01-01T02:50:31.906Z,1.50
2023-01-01T02:51:31.869Z,1.90
2023-01-01T02:52:31.887Z,1.80
2023-01-01T02:53:31.891Z,1.50
2023-01-01T02:54:32.000Z,1.80
2023-01-01T02:55:31.859Z,1.60
2023-01-01T02:56:31.824Z,1.70
2023-01-01T02:57:31.834Z,1.50
2023-01-01T02:58:31.803Z,1.70
2023-01-01T02:59:31.835Z,1.80
2023-01-01T03:00:31.797Z,1.80
2023-01-01T03:01:31.929Z,1.50
2023-01-01T03:02:31.937Z,2.00
2023-01-01T03:03:31.772Z,1.80
2023-01-01T03:04:31.741Z,1.70
2023-01-01T03:05:31.735Z,1.60
2023-01-01T03:06:31.714Z,1.70
2023-01-01T03:07:31.698Z,1.70
2023-01-01T03:08:31.801Z,1.50
2023-01-01T03:09:31.801Z,1.40
2023-01-01T03:10:31.756Z,1.30
2023-01-01T03:11:31.713Z,1.50
2023-01-01T03:12:31.656Z,1.80
2023-01-01T03:13:31.644Z,1.30
2023-01-01T03:14:31.625Z,1.80
2023-01-01T03:15:31.660Z,1.60
2023-01-01T03:16:31.607Z,1.60
2023-01-01T03:17:31.631Z,1.60
2023-01-01T03:18:31.587Z,1.30
2023-01-01T03:19:31.591Z,1.60
2023-01-01T03:20:31.620Z,1.40
2023-01-01T03:21:31.541Z,1.50
2023-01-01T03:22:31.559Z,1.70
2023-01-01T03:23:31.535Z,1.50
2023-01-01T03:24:31.545Z,1.60
2023-01-01T03:25:31.533Z,1.40
2023-01-01T03:26:31.495Z,1.20
2023-01-01T03:27:31.487Z,1.50
2023-01-01T03:28:31.465Z,1.50
2023-01-01T03:29:31.489Z,1.20
2023-01-01T03:30:31.480Z,1.40
2023-01-01T03:31:31.504Z,1.40
2023-01-01T03:32:31.416Z,1.20
2023-01-01T03:33:31.428Z,1.20
2023-01-01T03:34:31.412Z,1.00
2023-01-01T03:35:31.453Z,1.40
2023-01-01T03:36:31.388Z,1.00
2023-01-01T03:37:31.384Z,1.40
2023-01-01T03:38:31.364Z,1.60
2023-01-01T03:39:31.353Z,1.70
2023-01-01T03:40:31.376Z,1.40
2023-01-01T03:41:31.345Z,1.50
2023-01-01T03:42:31.336Z,1.10
2023-01-01T03:43:31.363Z,1.70
2023-01-01T03:44:31.325Z,1.30
2023-01-01T03:45:31.315Z,1.20
2023-01-01T03:46:31.430Z,1.20
2023-01-01T03:47:31.281Z,1.10
2023-01-01T03:48:31.307Z,1.10
2023-01-01T03:49:31.301Z,1.10
2023-01-01T03:50:31.322Z,1.30
2023-01-01T03:51:31.234Z,1.20
2023-01-01T03:52:31.260Z,1.10
2023-01-01T03:53:31.243Z,1.20
2023-01-01T03:54:31.191Z,1.40
2023-01-01T03:55:31.208Z,1.40
2023-01-01T03:56:31.186Z,1.00
2023-01-01T03:57:31.178Z,1.20
2023-01-01T03:58:31.151Z,1.10
2023-01-01T03:59:31.142Z,0.90
2023-01-01T04:00:31.191Z,1.50
2023-01-01T04:01:31.259Z,1.40
2023-01-01T04:02:31.218Z,1.10
2023-01-01T04:03:31.142Z,1.40
2023-01-01T04:04:31.100Z,1.10
2023-01-01T04:05:31.096Z,1.10
2023-01-01T04:06:31.062Z,1.30
2023-01-01T04:07:31.054Z,1.20
2023-01-01T04:08:31.057Z,1.50
2023-01-01T04:09:31.045Z,0.90
2023-01-01T04:10:31.150Z,1.30
2023-01-01T04:11:31.025Z,1.30
2023-01-01T04:12:31.024Z,1.20
2023-01-01T04:13:31.049Z,1.20
2023-01-01T04:14:31.008Z,1.00
2023-01-01T04:15:31.010Z,1.20
2023-01-01T04:16:30.983Z,1.20
2023-01-01T04:17:31.106Z,1.60
2023-01-01T04:18:30.964Z,1.60
2023-01-01T04:19:30.930Z,1.00
2023-01-01T04:20:30.953Z,1.30
2023-01-01T04:21:30.909Z,1.60
2023-01-01T04:22:30.912Z,1.50
2023-01-01T04:23:30.949Z,1.20
2023-01-01T04:24:30.884Z,1.50
2023-01-01T04:25:30.899Z,1.30
2023-01-01T04:26:30.873Z,1.20
2023-01-01T04:27:30.840Z,1.90
2023-01-01T04:28:30.836Z,1.50
2023-01-01T04:29:30.840Z,1.90
2023-01-01T04:30:30.842Z,1.20
2023-01-01T04:31:30.803Z,1.40
2023-01-01T04:32:30.812Z,1.20
2023-01-01T04:33:30.867Z,1.30
2023-01-01T04:34:30.776Z,1.30
2023-01-01T04:35:30.807Z,1.10
2023-01-01T04:36:30.744Z,1.40
2023-01-01T04:37:30.750Z,1.50
2023-01-01T04:38:30.733Z,1.20
2023-01-01T04:39:30.715Z,1.50
2023-01-01T04:40:30.729Z,1.20
2023-01-01T04:41:30.678Z,1.30
2023-01-01T04:42:30.701Z,1.80
2023-01-01T04:43:30.666Z,1.30
2023-01-01T04:44:30.669Z,1.30
2023-01-01T04:45:30.753Z,1.40
2023-01-01T04:46:30.685Z,1.60
2023-01-01T04:47:30.634Z,1.50
2023-01-01T04:48:30.640Z,1.50
2023-01-01T04:49:30.616Z,1.50
2023-01-01T04:50:30.601Z,1.70
2023-01-01T04:51:30.612Z,1.30
2023-01-01T04:52:30.592Z,1.40
2023-01-01T04:53:30.643Z,1.50
2023-01-01T04:54:30.547Z,1.50
2023-01-01T04:55:30.559Z,1.70
2023-01-01T04:56:30.527Z,1.40
2023-01-01T04:57:30.540Z,2.60
2023-01-01T04:58:30.666Z,1.10
2023-01-01T04:59:30.506Z,1.40
2023-01-01T05:00:30.515Z,1.70
2023-01-01T05:01:30.587Z,1.70
2023-01-01T05:02:30.594Z,1.50
2023-01-01T05:03:30.448Z,1.70
2023-01-01T05:04:30.450Z,1.40
2023-01-01T05:05:30.464Z,1.70
2023-01-01T05:06:30.435Z,1.50
2023-01-01T05:07:30.416Z,1.50
2023-01-01T05:08:30.416Z,1.40
2023-01-01T05:09:30.428Z,1.80
2023-01-01T05:10:30.412Z,1.20
2023-01-01T05:11:30.380Z,1.10
2023-01-01T05:12:30.401Z,1.60
2023-01-01T05:13:30.367Z,1.60
2023-01-01T05:14:30.419Z,1.70
2023-01-01T05:15:30.355Z,1.80
2023-01-01T05:16:30.416Z,1.50
2023-01-01T05:17:30.313Z,1.30
2023-01-01T05:18:30.284Z,1.60
2023-01-01T05:19:30.298Z,1.50
2023-01-01T05:20:30.291Z,1.20
2023-01-01T05:21:30.272Z,1.60
2023-01-01T05:22:30.243Z,2.20
2023-01-01T05:23:30.260Z,1.60
2023-01-01T05:24:30.237Z,1.80
2023-01-01T05:25:30.241Z,1.90
2023-01-01T05:26:30.231Z,1.90
2023-01-01T05:27:30.203Z,1.70
2023-01-01T05:28:30.183Z,1.90
2023-01-01T05:29:30.198Z,1.60
2023-01-01T05:30:30.174Z,2.00
2023-01-01T05:31:30.252Z,2.30
2023-01-01T05:32:30.144Z,2.40
2023-01-01T05:33:30.132Z,2.10
2023-01-01T05:35:00.034Z,2.40
2023-01-01T05:36:00.016Z,2.60
2023-01-01T05:37:00.019Z,1.70
2023-01-01T05:37:59.997Z,1.90
2023-01-01T05:38:59.961Z,2.20
2023-01-01T05:39:59.960Z,1.80
2023-01-01T05:41:00.273Z,2.40
2023-01-01T05:41:59.992Z,2.10
2023-01-01T05:42:59.954Z,2.40
2023-01-01T05:43:59.938Z,2.40
2023-01-01T05:44:59.933Z,2.40
2023-01-01T05:45:59.955Z,2.00
2023-01-01T05:46:59.913Z,2.00
2023-01-01T05:47:59.894Z,2.40
2023-01-01T05:48:59.893Z,2.30
2023-01-01T05:49:59.848Z,1.70
2023-01-01T05:50:59.866Z,2.00
2023-01-01T05:51:59.841Z,1.90
2023-01-01T05:52:59.863Z,1.90
2023-01-01T05:53:59.825Z,2.00
2023-01-01T05:54:59.862Z,2.20
2023-01-01T05:55:59.864Z,2.50
2023-01-01T05:56:59.799Z,2.20
2023-01-01T05:57:59.784Z,1.80
2023-01-01T05:58:59.766Z,1.80
2023-01-01T05:59:59.774Z,2.00
2023-01-01T06:00:59.898Z,2.00
2023-01-01T06:01:59.870Z,1.90
2023-01-01T06:02:59.811Z,1.80
2023-01-01T06:03:59.824Z,2.00
2023-01-01T06:04:59.697Z,1.90
2023-01-01T06:05:59.760Z,2.20
2023-01-01T06:06:59.695Z,2.10
2023-01-01T06:07:59.669Z,2.50
2023-01-01T06:08:59.693Z,2.80
2023-01-01T06:09:59.636Z,3.30
2023-01-01T06:10:59.706Z,2.50
2023-01-01T06:11:59.612Z,2.90
2023-01-01T06:12:59.669Z,2.70
2023-01-01T06:13:59.607Z,3.10
2023-01-01T06:14:59.621Z,2.80
2023-01-01T06:15:59.602Z,2.90
2023-01-01T06:16:59.622Z,2.40
2023-01-01T06:17:59.642Z,2.50
2023-01-01T06:18:59.601Z,2.70
2023-01-01T06:19:59.538Z,2.30
2023-01-01T06:20:59.579Z,2.50
2023-01-01T06:21:59.518Z,2.40
2023-01-01T06:22:59.522Z,2.30
2023-01-01T06:23:59.555Z,2.30
2023-01-01T06:24:59.586Z,2.30
2023-01-01T06:25:59.500Z,1.90
2023-01-01T06:26:59.537Z,1.90
2023-01-01T06:27:59.440Z,2.00
2023-01-01T06:28:59.482Z,1.60
2023-01-01T06:29:59.428Z,1.70
2023-01-01T06:30:59.489Z,1.80
2023-01-01T06:31:59.424Z,1.60
2023-01-01T06:32:59.414Z,2.10
2023-01-01T06:33:59.378Z,1.70
2023-01-01T06:34:59.366Z,1.90
2023-01-01T06:35:59.403Z,1.60
2023-01-01T06:37:06.338Z,1.60
2023-01-01T06:38:00.353Z,1.50
2023-01-01T06:38:59.384Z,1.60
2023-01-01T06:39:59.330Z,1.50
2023-01-01T06:40:59.348Z,1.50
2023-01-01T06:41:59.293Z,1.70
2023-01-01T06:42:59.292Z,1.80
2023-01-01T06:43:59.306Z,1.70
2023-01-01T06:44:59.259Z,1.60
2023-01-01T06:45:59.294Z,1.60
2023-01-01T06:46:59.259Z,1.60
2023-01-01T06:47:59.243Z,1.60
2023-01-01T06:48:59.225Z,1.60
2023-01-01T06:49:59.220Z,1.90
2023-01-01T06:50:59.276Z,1.40
2023-01-01T06:51:59.281Z,1.40
2023-01-01T06:52:59.180Z,1.80
2023-01-01T06:53:59.207Z,1.70
2023-01-01T06:54:59.194Z,1.70
2023-01-01T06:55:59.173Z,1.70
2023-01-01T06:56:59.155Z,1.50
2023-01-01T06:57:59.141Z,1.40
2023-01-01T06:58:59.116Z,1.40
2023-01-01T06:59:59.131Z,1.50
2023-01-01T07:01:04.823Z,1.70
2023-01-01T07:02:00.163Z,1.20
2023-01-01T07:02:59.348Z,1.50
2023-01-01T07:03:59.063Z,1.40
2023-01-01T07:04:59.053Z,1.50
2023-01-01T07:05:59.047Z,1.30
2023-01-01T07:06:59.024Z,1.20
2023-01-01T07:07:59.046Z,1.60
2023-01-01T07:08:59.043Z,1.30
2023-01-01T07:09:58.993Z,1.70
2023-01-01T07:10:59.005Z,1.20
2023-01-01T07:11:58.988Z,1.50
2023-01-01T07:12:58.972Z,1.70
2023-01-01T07:13:58.983Z,1.40
2023-01-01T07:14:58.973Z,1.40
2023-01-01T07:15:58.967Z,1.60
2023-01-01T07:16:58.915Z,1.50
2023-01-01T07:17:58.905Z,1.40
2023-01-01T07:18:58.972Z,1.70
2023-01-01T07:19:58.887Z,1.20
2023-01-01T07:20:58.924Z,1.90
2023-01-01T07:21:58.868Z,1.50
2023-01-01T07:22:58.863Z,1.70
2023-01-01T07:23:58.967Z,1.30
2023-01-01T07:24:58.866Z,1.30
2023-01-01T07:25:59.233Z,1.60
2023-01-01T07:26:58.815Z,1.50
2023-01-01T07:27:58.809Z,1.50
2023-01-01T07:29:06.204Z,1.40
2023-01-01T07:29:59.789Z,1.60
2023-01-01T07:30:58.801Z,1.70
2023-01-01T07:31:58.753Z,1.50
2023-01-01T07:32:58.773Z,1.90
2023-01-01T07:33:58.827Z,1.60
2023-01-01T07:34:58.739Z,1.70
2023-01-01T07:35:58.742Z,1.80
2023-01-01T07:36:58.707Z,1.90
2023-01-01T07:37:58.697Z,2.00
2023-01-01T07:38:58.746Z,1.60
2023-01-01T07:39:58.670Z,2.20
2023-01-01T07:40:58.693Z,1.50
2023-01-01T07:41:58.690Z,2.10
2023-01-01T07:42:58.654Z,1.80
2023-01-01T07:43:58.665Z,1.80
2023-01-01T07:44:58.686Z,1.60
2023-01-01T07:45:58.684Z,1.40
2023-01-01T07:46:58.617Z,1.40
2023-01-01T07:47:58.656Z,1.70
2023-01-01T07:48:58.589Z,1.90
2023-01-01T07:49:58.585Z,1.50
2023-01-01T07:50:58.621Z,1.50
2023-01-01T07:51:58.547Z,1.20
2023-01-01T07:52:58.620Z,2.10
2023-01-01T07:54:05.669Z,1.80
2023-01-01T07:54:59.530Z,1.90
2023-01-01T07:55:58.498Z,1.60
2023-01-01T07:56:58.496Z,1.80
2023-01-01T07:57:58.491Z,1.80
2023-01-01T07:58:58.468Z,1.50
2023-01-01T07:59:58.460Z,2.20
2023-01-01T08:00:58.490Z,1.80
2023-01-01T08:01:58.553Z,1.80
2023-01-01T08:02:58.525Z,1.90
2023-01-01T08:03:58.462Z,2.00
2023-01-01T08:04:58.422Z,2.00
2023-01-01T08:05:58.441Z,1.90
2023-01-01T08:06:58.377Z,2.20
2023-01-01T08:07:58.416Z,1.80
2023-01-01T08:08:58.378Z,1.50
2023-01-01T08:09:58.363Z,1.90
2023-01-01T08:11:03.421Z,1.80
2023-01-01T08:11:59.360Z,1.60
2023-01-01T08:12:58.327Z,1.70
2023-01-01T08:13:58.353Z,1.50
2023-01-01T08:14:58.305Z,1.90
2023-01-01T08:15:58.358Z,1.60
2023-01-01T08:16:58.366Z,1.80
2023-01-01T08:17:58.303Z,1.70
2023-01-01T08:18:58.289Z,2.50
2023-01-01T08:19:58.241Z,1.80
2023-01-01T08:20:58.306Z,2.00
2023-01-01T08:21:58.219Z,2.30
2023-01-01T08:23:04.648Z,1.80
2023-01-01T08:23:59.427Z,1.80
2023-01-01T08:24:58.247Z,2.20
2023-01-01T08:25:58.233Z,2.00
2023-01-01T08:26:58.178Z,2.20
2023-01-01T08:27:58.260Z,2.20
2023-01-01T08:28:58.203Z,2.40
2023-01-01T08:29:58.192Z,1.90
2023-01-01T08:30:58.223Z,2.20
2023-01-01T08:31:58.117Z,2.20
2023-01-01T08:32:58.119Z,2.20
2023-01-01T08:33:58.126Z,2.80
2023-01-01T08:34:58.100Z,2.10
2023-01-01T08:35:58.096Z,2.40
2023-01-01T08:36:58.090Z,2.50
2023-01-01T08:37:58.094Z,2.80
2023-01-01T08:38:58.144Z,2.60
2023-01-01T08:39:58.070Z,3.30
2023-01-01T08:40:58.067Z,3.20
2023-01-01T08:41:58.018Z,2.50
2023-01-01T08:42:58.029Z,2.80
2023-01-01T08:43:57.991Z,2.60
2023-01-01T08:44:58.014Z,2.60
2023-01-01T08:45:58.015Z,2.50
2023-01-01T08:46:57.991Z,2.40
2023-01-01T08:47:57.980Z,1.80
2023-01-01T08:48:57.962Z,2.10
2023-01-01T08:49:57.921Z,1.70
2023-01-01T08:50:57.922Z,1.70
2023-01-01T08:51:57.914Z,1.90
2023-01-01T08:52:57.913Z,2.00
2023-01-01T08:53:57.876Z,1.90
2023-01-01T08:54:58.061Z,1.80
2023-01-01T08:55:57.863Z,1.80
2023-01-01T08:56:57.871Z,1.70
2023-01-01T08:57:57.845Z,1.70
2023-01-01T08:59:03.910Z,1.90
2023-01-01T08:59:58.823Z,2.00
2023-01-01T09:00:57.831Z,1.90
2023-01-01T09:01:57.973Z,1.60
2023-01-01T09:02:57.911Z,1.70
2023-01-01T09:03:57.801Z,2.20
2023-01-01T09:04:57.805Z,1.90
2023-01-01T09:05:57.798Z,1.80
2023-01-01T09:06:57.749Z,1.80
2023-01-01T09:07:57.766Z,1.80
2023-01-01T09:08:57.734Z,1.90
2023-01-01T09:09:57.716Z,1.80
2023-01-01T09:10:57.746Z,1.70
2023-01-01T09:11:57.720Z,2.20
2023-01-01T09:12:57.698Z,2.00
2023-01-01T09:13:57.676Z,1.80
2023-01-01T09:14:57.742Z,1.90
2023-01-01T09:15:57.742Z,1.60
2023-01-01T09:16:57.630Z,1.70
2023-01-01T09:17:57.662Z,1.60
2023-01-01T09:18:57.624Z,1.60
2023-01-01T09:19:57.630Z,1.60
2023-01-01T09:20:57.618Z,1.60
2023-01-01T09:21:57.615Z,1.50
2023-01-01T09:23:02.509Z,1.40
2023-01-01T09:23:58.541Z,1.10
2023-01-01T09:24:57.545Z,1.30
2023-01-01T09:25:57.551Z,1.60
2023-01-01T09:26:57.519Z,1.70
2023-01-01T09:27:57.555Z,1.40
2023-01-01T09:28:57.535Z,1.80
2023-01-01T09:29:57.490Z,1.80
2023-01-01T09:30:57.516Z,2.20
2023-01-01T09:31:57.495Z,1.30
2023-01-01T09:32:57.442Z,1.60
2023-01-01T09:33:57.448Z,1.50
2023-01-01T09:34:57.454Z,1.70
2023-01-01T09:35:57.492Z,1.60
2023-01-01T09:36:57.427Z,1.90
2023-01-01T09:37:57.448Z,1.60
2023-01-01T09:38:57.386Z,1.40
2023-01-01T09:39:57.381Z,1.40
2023-01-01T09:40:57.402Z,1.30
2023-01-01T09:41:57.390Z,1.30
2023-01-01T09:42:57.372Z,1.50
2023-01-01T09:43:57.330Z,1.40
2023-01-01T09:44:57.342Z,1.70
2023-01-01T09:45:57.384Z,1.30
2023-01-01T09:46:57.316Z,1.40
2023-01-01T09:47:57.299Z,1.30
2023-01-01T09:48:57.321Z,1.20
2023-01-01T09:49:57.270Z,1.20
2023-01-01T09:50:57.285Z,1.30
2023-01-01T09:51:58.288Z,1.40
2023-01-01T09:52:57.267Z,2.50
2023-01-01T09:53:57.219Z,1.40
2023-01-01T09:54:57.249Z,1.50
2023-01-01T09:55:57.233Z,1.20
2023-01-01T09:56:57.204Z,1.30
2023-01-01T09:57:57.242Z,1.10
2023-01-01T09:58:57.167Z,1.50
2023-01-01T09:59:57.173Z,1.30
2023-01-01T10:00:57.185Z,1.40
2023-01-01T10:01:57.228Z,1.20
2023-01-01T10:02:57.119Z,1.30
2023-01-01T10:03:57.190Z,1.10
2023-01-01T10:04:57.257Z,1.40
2023-01-01T10:05:57.181Z,1.50
2023-01-01T10:06:57.080Z,1.10
2023-01-01T10:07:57.114Z,1.40
2023-01-01T10:08:57.088Z,1.20
2023-01-01T10:09:57.052Z,1.70
2023-01-01T10:10:57.092Z,1.20
2023-01-01T10:11:57.033Z,1.30
2023-01-01T10:12:57.019Z,1.20
2023-01-01T10:13:57.020Z,1.30
2023-01-01T10:15:00.827Z,1.30
2023-01-01T10:15:57.031Z,1.30
2023-01-01T10:16:57.089Z,1.50
2023-01-01T10:17:57.012Z,1.40
2023-01-01T10:18:56.954Z,1.30
2023-01-01T10:19:56.953Z,1.30
2023-01-01T10:20:56.941Z,1.30
2023-01-01T10:21:56.936Z,1.50
2023-01-01T10:22:56.976Z,1.30
2023-01-01T10:23:56.898Z,1.70
2023-01-01T10:24:56.905Z,1.20
2023-01-01T10:25:56.869Z,1.20
2023-01-01T10:26:56.919Z,1.40
2023-01-01T10:27:59.576Z,1.10
2023-01-01T10:28:56.903Z,1.30
2023-01-01T10:30:03.464Z,1.10
2023-01-01T10:30:57.824Z,1.40
2023-01-01T10:31:56.882Z,1.00
2023-01-01T10:32:56.811Z,1.50
2023-01-01T10:33:56.863Z,1.30
2023-01-01T10:34:56.794Z,1.40
2023-01-01T10:35:56.815Z,1.30
2023-01-01T10:36:56.799Z,1.70
2023-01-01T10:37:56.762Z,1.10
2023-01-01T10:38:56.734Z,1.40
2023-01-01T10:39:56.736Z,1.60
2023-01-01T10:40:56.739Z,1.30
2023-01-01T10:41:56.710Z,1.30
2023-01-01T10:42:56.712Z,1.40
2023-01-01T10:43:56.768Z,1.20
2023-01-01T10:44:56.674Z,1.20
2023-01-01T10:45:56.720Z,1.40
2023-01-01T10:46:56.669Z,1.30
2023-01-01T10:47:56.631Z,1.40
2023-01-01T10:48:56.631Z,1.10
2023-01-01T10:49:56.656Z,1.30
2023-01-01T10:50:56.730Z,1.30
2023-01-01T10:51:56.599Z,1.50
2023-01-01T10:52:56.590Z,1.30
2023-01-01T10:53:56.577Z,1.40
2023-01-01T10:54:56.560Z,1.40
2023-01-01T10:55:56.627Z,1.40
2023-01-01T10:56:56.557Z,1.20
2023-01-01T10:57:56.529Z,1.40
2023-01-01T10:58:56.523Z,1.30
2023-01-01T11:01:27.843Z,1.20
2023-01-01T11:02:27.911Z,1.40
2023-01-01T11:03:27.728Z,1.60
2023-01-01T11:04:27.709Z,1.60
2023-01-01T11:05:27.710Z,1.20
2023-01-01T11:06:27.692Z,1.60
2023-01-01T11:07:27.679Z,1.60
2023-01-01T11:08:27.689Z,1.50
2023-01-01T11:09:27.666Z,1.50
2023-01-01T11:10:27.693Z,1.70
2023-01-01T11:11:27.661Z,1.60
2023-01-01T11:13:03.020Z,1.20
2023-01-01T11:13:28.629Z,1.30
2023-01-01T11:14:27.611Z,1.50
2023-01-01T11:15:27.614Z,1.40
2023-01-01T11:16:27.719Z,1.40
2023-01-01T11:17:27.599Z,1.10
2023-01-01T11:18:27.581Z,1.20
2023-01-01T11:19:27.573Z,1.30
2023-01-01T11:20:27.594Z,1.50
2023-01-01T11:21:27.563Z,1.60
2023-01-01T11:22:27.531Z,1.20
2023-01-01T11:23:27.526Z,1.40
2023-01-01T11:24:27.576Z,1.50
2023-01-01T11:25:27.523Z,1.30
2023-01-01T11:26:27.530Z,1.30
2023-01-01T11:27:27.663Z,1.60
2023-01-01T11:28:27.523Z,1.40
2023-01-01T11:29:27.460Z,1.40
2023-01-01T11:30:27.556Z,1.40
2023-01-01T11:31:27.582Z,1.40
2023-01-01T11:32:27.480Z,1.50
2023-01-01T11:33:27.410Z,1.50
2023-01-01T11:34:27.402Z,1.30
2023-01-01T11:35:27.423Z,1.40
2023-01-01T11:36:27.473Z,1.40
2023-01-01T11:37:27.397Z,1.20
2023-01-01T11:38:30.255Z,1.10
2023-01-01T11:39:27.417Z,1.30
2023-01-01T11:40:27.391Z,1.70
2023-01-01T11:41:27.351Z,1.20
2023-01-01T11:42:27.328Z,1.50
2023-01-01T11:43:27.325Z,1.30
2023-01-01T11:44:27.496Z,1.30
2023-01-01T11:45:27.340Z,1.20
2023-01-01T11:46:27.320Z,1.30
2023-01-01T11:47:27.267Z,1.30
2023-01-01T11:48:27.267Z,1.40
2023-01-01T11:49:27.227Z,1.10
2023-01-01T11:50:27.285Z,1.20
2023-01-01T11:51:27.292Z,1.20
2023-01-01T11:52:27.260Z,1.30
2023-01-01T11:53:27.184Z,1.40
2023-01-01T11:54:27.195Z,1.50
2023-01-01T11:55:27.185Z,1.20
2023-01-01T11:56:27.264Z,1.30
2023-01-01T11:57:27.210Z,1.20
2023-01-01T11:58:27.143Z,1.30
2023-01-01T11:59:27.122Z,1.30
2023-01-01T12:00:27.240Z,1.30
2023-01-01T12:01:27.175Z,1.50
2023-01-01T12:02:27.137Z,1.20
2023-01-01T12:03:33.077Z,1.30
2023-01-01T12:04:28.086Z,1.40
2023-01-01T12:05:27.218Z,1.40
2023-01-01T12:06:27.072Z,0.90
2023-01-01T12:07:27.067Z,1.00
2023-01-01T12:08:27.049Z,1.40
2023-01-01T12:09:27.053Z,1.20
2023-01-01T12:10:27.208Z,1.30
2023-01-01T12:11:27.031Z,1.20
2023-01-01T12:12:26.987Z,1.30
2023-01-01T12:13:26.974Z,1.10
2023-01-01T12:14:32.363Z,1.10
2023-01-01T12:15:28.072Z,1.30
2023-01-01T12:16:27.014Z,1.20
2023-01-01T12:17:26.934Z,6.30
2023-01-01T12:18:26.945Z,2.50
2023-01-01T12:19:26.898Z,3.20
2023-01-01T12:20:27.070Z,2.10
2023-01-01T12:21:26.961Z,1.30
2023-01-01T12:22:26.891Z,1.50
2023-01-01T12:23:26.899Z,1.10
2023-01-01T12:24:26.927Z,1.30
2023-01-01T12:25:26.863Z,1.10
2023-01-01T12:26:26.875Z,0.90
2023-01-01T12:27:26.991Z,1.20
2023-01-01T12:28:26.843Z,1.20
2023-01-01T12:29:26.825Z,1.40
2023-01-01T12:30:26.879Z,1.20
2023-01-01T12:31:26.828Z,1.30
2023-01-01T12:32:26.790Z,1.50
2023-01-01T12:33:26.767Z,1.20
2023-01-01T12:34:26.752Z,1.40
2023-01-01T12:35:26.800Z,1.30
2023-01-01T12:36:26.748Z,1.30
2023-01-01T12:37:26.812Z,1.50
2023-01-01T12:38:26.738Z,1.50
2023-01-01T12:39:26.693Z,1.10
2023-01-01T12:40:27.050Z,1.10
2023-01-01T12:41:26.688Z,1.30
2023-01-01T12:42:26.675Z,1.60
2023-01-01T12:43:26.671Z,1.30
2023-01-01T12:44:26.648Z,1.50
2023-01-01T12:45:30.959Z,1.10
2023-01-01T12:46:26.680Z,2.20
2023-01-01T12:47:26.802Z,1.80
2023-01-01T12:48:26.646Z,4.00
2023-01-01T12:49:26.638Z,1.40
2023-01-01T12:50:26.591Z,1.30
2023-01-01T12:51:26.594Z,1.20
2023-01-01T12:52:26.627Z,1.40
2023-01-01T12:53:26.549Z,1.40
2023-01-01T12:54:26.538Z,1.80
2023-01-01T12:55:26.795Z,1.70
2023-01-01T12:56:26.507Z,1.60
2023-01-01T12:57:26.542Z,1.40
2023-01-01T12:58:26.510Z,1.70
2023-01-01T12:59:26.605Z,1.30
2023-01-01T13:00:26.534Z,1.30
2023-01-01T13:01:32.570Z,1.30
2023-01-01T13:02:27.629Z,1.50
2023-01-01T13:03:26.567Z,1.60
2023-01-01T13:04:26.495Z,1.40
2023-01-01T13:05:26.613Z,1.30
2023-01-01T13:06:28.656Z,1.40
2023-01-01T13:07:26.417Z,1.20
2023-01-01T13:08:26.389Z,1.50
2023-01-01T13:09:26.420Z,1.60
2023-01-01T13:10:26.369Z,1.40
2023-01-01T13:11:26.352Z,1.30
2023-01-01T13:12:26.426Z,1.50
2023-01-01T13:13:26.335Z,1.20
2023-01-01T13:14:26.369Z,1.70
2023-01-01T13:15:26.349Z,1.70
2023-01-01T13:16:26.372Z,1.60
2023-01-01T13:17:26.312Z,1.50
2023-01-01T13:18:26.288Z,1.40
2023-01-01T13:19:26.366Z,1.30
2023-01-01T13:20:26.329Z,1.30
2023-01-01T13:21:26.248Z,1.10